Time;durP1;ratioP1;P1;durP2;ratioP2;P2;SDS_P1;SDS_P2;PMS_P1;PMS_P2;Temp;Humidity;BMP_temperature;BMP_pressure;BME280_temperature;BME280_humidity;BME280_pressure;Samples;Min_cycle;Max_cycle;Signal;HPM_P1;HPM_P2
2022/03/31 00:02:22;;;;;;;;;;;8.10;99.90;;;;;;5077281;28;19924;-68
2022/03/31 00:04:48;;;;;;;211.90;206.93;;;8.00;99.90;;;;;;5073874;28;20423;-67
2022/03/31 00:07:15;;;;;;;;;;;8.00;99.90;;;;;;5081951;28;20443;-68
2022/03/31 00:09:41;;;;;;;;;;;8.00;99.90;;;;;;5076637;28;20853;-68
2022/03/31 00:12:09;;;;;;;;;;;7.90;99.90;;;;;;5071284;28;20016;-68
2022/03/31 00:14:35;;;;;;;;;;;7.90;99.90;;;;;;5086360;28;19966;-67
2022/03/31 00:17:02;;;;;;;;;;;7.80;99.90;;;;;;5079693;28;19999;-68
2022/03/31 00:19:30;;;;;;;;;;;7.80;99.90;;;;;;5076823;28;20460;-69
2022/03/31 00:21:56;;;;;;;;;;;7.80;99.90;;;;;;5080097;28;19987;-68
2022/03/31 00:24:23;;;;;;;;;;;7.70;99.90;;;;;;5087127;28;19966;-67
2022/03/31 00:26:49;;;;;;;;;;;7.70;99.90;;;;;;5086724;28;19956;-67
2022/03/31 00:29:16;;;;;;;;;;;7.70;99.90;;;;;;5076935;28;19999;-68
2022/03/31 00:31:43;;;;;;;;;;;7.60;99.90;;;;;;5071288;28;19965;-67
2022/03/31 00:34:09;;;;;;;;;;;7.60;99.90;;;;;;5074776;28;19954;-67
2022/03/31 00:36:37;;;;;;;;;;;7.50;99.90;;;;;;5079030;28;19944;-68
2022/03/31 00:42:03;;;;;;;;;;;7.40;99.90;;;;;;5029903;28;19965;-67
2022/03/31 00:44:30;;;;;;;;;;;7.40;99.90;;;;;;5037432;28;19966;-67
2022/03/31 00:46:57;;;;;;;;;;;7.40;99.90;;;;;;5052999;28;19942;-68
2022/03/31 00:49:25;;;;;;;;;;;7.40;99.90;;;;;;5083695;28;19947;-67
2022/03/31 00:51:54;;;;;;;;;;;7.40;99.90;;;;;;5077736;28;19949;-67
2022/03/31 00:54:22;;;;;;;;;;;7.40;99.90;;;;;;5080888;28;19985;-68
2022/03/31 00:56:49;;;;;;;;;;;7.30;99.90;;;;;;5073004;28;19948;-68
2022/03/31 00:59:18;;;;;;;;;;;7.40;99.90;;;;;;5075438;28;20033;-68
2022/03/31 01:01:45;;;;;;;;;;;7.40;99.90;;;;;;5075058;28;20044;-68
2022/03/31 01:04:13;;;;;;;;;;;7.50;99.90;;;;;;5073188;28;20294;-68
2022/03/31 01:06:40;;;;;;;;;;;7.40;99.90;;;;;;5072004;28;19947;-68
2022/03/31 01:09:08;;;;;;;;;;;7.50;99.90;;;;;;5074184;28;19955;-70
2022/03/31 01:11:35;;;;;;;;;;;7.50;99.90;;;;;;5072464;28;19956;-68
2022/03/31 01:14:01;;;;;;;;;;;7.50;99.90;;;;;;5073692;28;20323;-68
2022/03/31 01:16:29;;;;;;;;;;;7.50;99.90;;;;;;5080493;28;19995;-67
2022/03/31 01:18:56;;;;;;;;;;;7.60;99.90;;;;;;5076593;28;19956;-68
2022/03/31 01:21:22;;;;;;;;;;;7.60;99.90;;;;;;5070332;28;20490;-67
2022/03/31 01:23:54;;;;;;;;;;;7.60;99.90;;;;;;5066851;28;19963;-67
2022/03/31 01:26:21;;;;;;;;;;;7.60;99.90;;;;;;5067578;28;19962;-69
2022/03/31 01:28:47;;;;;;;;;;;7.60;99.90;;;;;;5068670;28;20001;-68
2022/03/31 01:31:14;;;;;;;;;;;7.60;99.90;;;;;;5071749;28;20014;-69
2022/03/31 01:33:41;;;;;;;;;;;7.60;99.90;;;;;;5073525;28;19943;-68
2022/03/31 01:36:08;;;;;;;;;;;7.60;99.90;;;;;;5072850;28;20001;-67
2022/03/31 01:38:34;;;;;;;;;;;7.60;99.90;;;;;;5082243;28;19954;-68
2022/03/31 01:41:04;;;;;;;;;;;7.60;99.90;;;;;;5079991;28;19973;-68
2022/03/31 01:43:31;;;;;;;;;;;7.50;99.90;;;;;;5078280;28;20010;-68
2022/03/31 01:45:58;;;;;;;;;;;7.50;99.90;;;;;;5077585;28;19943;-68
2022/03/31 01:48:25;;;;;;;;;;;7.50;99.90;;;;;;5073450;28;19945;-67
2022/03/31 01:50:51;;;;;;;;;;;7.50;99.90;;;;;;5078349;28;19954;-68
2022/03/31 01:53:18;;;;;;;;;;;7.50;99.90;;;;;;5078426;28;19974;-68
2022/03/31 01:55:45;;;;;;;;;;;7.50;99.90;;;;;;5071594;28;19944;-68
2022/03/31 01:58:13;;;;;;;;;;;7.40;99.90;;;;;;5072015;28;20475;-70
2022/03/31 02:00:39;;;;;;;;;;;7.40;99.90;;;;;;5077821;28;20049;-66
2022/03/31 02:03:06;;;;;;;;;;;7.40;99.90;;;;;;5083720;28;19949;-68
2022/03/31 02:05:32;;;;;;;;;;;7.40;99.90;;;;;;5085621;28;19970;-68
2022/03/31 02:07:59;;;;;;;;;;;7.50;99.90;;;;;;5072603;28;19943;-68
2022/03/31 02:10:26;;;;;;;;;;;7.40;99.90;;;;;;5072031;28;20010;-68
2022/03/31 02:12:53;;;;;;;;;;;7.40;99.90;;;;;;5082126;28;19958;-68
2022/03/31 02:15:21;;;;;;;;;;;7.40;99.90;;;;;;5070407;28;20354;-68
2022/03/31 02:17:48;;;;;;;;;;;7.40;99.90;;;;;;5070437;28;19950;-68
2022/03/31 02:20:15;;;;;;;;;;;7.40;99.90;;;;;;5071502;28;19959;-67
2022/03/31 02:22:41;;;;;;;;;;;7.50;99.90;;;;;;5071223;28;19942;-67
2022/03/31 02:25:09;;;;;;;;;;;7.40;99.90;;;;;;5072082;28;20439;-68
2022/03/31 02:27:35;;;;;;;;;;;7.40;99.90;;;;;;5070931;28;20027;-69
2022/03/31 02:30:02;;;;;;;;;;;7.40;99.90;;;;;;5068396;28;20500;-67
2022/03/31 02:32:29;;;;;;;;;;;7.40;99.90;;;;;;5070560;28;19992;-68
2022/03/31 02:34:57;;;;;;;;;;;7.40;99.90;;;;;;5076294;28;19949;-68
2022/03/31 02:37:23;;;;;;;;;;;7.40;99.90;;;;;;5071634;28;19949;-67
2022/03/31 02:39:50;;;;;;;;;;;7.40;99.90;;;;;;5076821;28;20393;-67
2022/03/31 02:42:17;;;;;;;;;;;7.40;99.90;;;;;;5080934;28;20000;-68
2022/03/31 02:44:44;;;;;;;;;;;7.30;99.90;;;;;;5076199;28;20014;-67
2022/03/31 02:47:10;;;;;;;;;;;7.30;99.90;;;;;;5074323;28;19944;-70
2022/03/31 02:49:38;;;;;;;;;;;7.30;99.90;;;;;;5076399;28;19943;-68
2022/03/31 02:52:06;;;;;;;;;;;7.30;99.90;;;;;;5070845;28;19942;-67
2022/03/31 02:57:16;;;;;;;;;;;7.30;99.90;;;;;;5068524;28;19942;-68
2022/03/31 02:59:43;;;;;;;;;;;7.30;99.90;;;;;;5063562;28;20456;-67
2022/03/31 03:02:10;;;;;;;;;;;7.30;99.90;;;;;;5070484;28;19950;-67
2022/03/31 03:04:36;;;;;;;;;;;7.30;99.90;;;;;;5070981;28;19957;-68
2022/03/31 03:07:05;;;;;;;;;;;7.20;99.90;;;;;;5072414;28;19953;-68
2022/03/31 03:09:32;;;;;;;;;;;7.10;99.90;;;;;;5060510;28;19938;-68
2022/03/31 03:11:58;;;;;;;;;;;7.10;99.90;;;;;;5069116;28;20041;-69
2022/03/31 03:14:25;;;;;;;;;;;7.10;99.90;;;;;;5070759;28;20006;-68
2022/03/31 03:16:51;;;;;;;;;;;7.10;99.90;;;;;;5074164;28;19945;-68
2022/03/31 03:19:18;;;;;;;;;;;7.00;99.90;;;;;;5079531;28;19943;-68
2022/03/31 03:21:44;;;;;;;;;;;7.00;99.90;;;;;;5070337;28;19975;-66
2022/03/31 03:24:12;;;;;;;;;;;7.00;99.90;;;;;;5077706;28;20034;-69
2022/03/31 03:26:39;;;;;;;;;;;7.00;99.90;;;;;;5070357;28;19990;-66
2022/03/31 03:29:05;;;;;;;;;;;7.00;99.90;;;;;;5076016;28;19988;-66
2022/03/31 03:31:32;;;;;;;;;;;7.00;99.90;;;;;;5071114;28;19973;-69
2022/03/31 03:33:58;;;;;;;;;;;6.90;99.90;;;;;;5070533;28;20063;-69
2022/03/31 03:36:27;;;;;;;;;;;6.90;99.90;;;;;;5069535;28;20018;-69
2022/03/31 03:38:53;;;;;;;;;;;6.90;99.90;;;;;;5071313;28;20027;-69
2022/03/31 03:41:21;;;;;;;;;;;6.80;99.90;;;;;;5073991;28;19966;-68
2022/03/31 03:43:48;;;;;;;;;;;6.80;99.90;;;;;;5076235;28;19943;-69
2022/03/31 03:46:15;;;;;;;;;;;6.80;99.90;;;;;;5069581;28;20033;-67
2022/03/31 03:48:41;;;;;;;;;;;6.80;99.90;;;;;;5073691;28;19940;-70
2022/03/31 03:51:09;;;;;;;;;;;6.80;99.90;;;;;;5070870;28;20311;-67
2022/03/31 03:53:35;;;;;;;;;;;6.80;99.90;;;;;;5070611;28;20049;-67
2022/03/31 03:56:02;;;;;;;;;;;6.80;99.90;;;;;;5069566;28;19957;-68
2022/03/31 03:58:30;;;;;;;;;;;6.80;99.90;;;;;;5083270;28;20031;-70
2022/03/31 04:00:57;;;;;;;;;;;6.80;99.90;;;;;;5069292;28;19960;-67
2022/03/31 04:03:23;;;;;;;;;;;6.80;99.90;;;;;;5069811;28;19944;-68
2022/03/31 04:05:50;;;;;;;;;;;6.80;99.90;;;;;;5077164;28;20031;-67
2022/03/31 04:08:17;;;;;;;;;;;6.80;99.90;;;;;;5069453;28;20341;-68
2022/03/31 04:10:44;;;;;;;;;;;6.80;99.90;;;;;;5069873;28;20399;-66
2022/03/31 04:13:11;;;;;;;;;;;6.70;99.90;;;;;;5073385;28;19946;-68
2022/03/31 04:15:39;;;;;;;;;;;6.70;99.90;;;;;;5076789;28;19948;-68
2022/03/31 04:18:07;;;;;;;;;;;6.70;99.90;;;;;;5072814;28;19940;-67
2022/03/31 04:20:34;;;;;;;;;;;6.70;99.90;;;;;;5076706;28;19967;-66
2022/03/31 04:23:01;;;;;;;;;;;6.70;99.90;;;;;;5070981;28;19960;-67
2022/03/31 04:25:27;;;;;;;;;;;6.70;99.90;;;;;;5068344;28;20010;-68
2022/03/31 04:27:54;;;;;;;;;;;6.70;99.90;;;;;;5071870;28;19948;-67
2022/03/31 04:30:21;;;;;;;;;;;6.60;99.90;;;;;;5068938;28;19965;-67
2022/03/31 04:32:49;;;;;;;;;;;6.60;99.90;;;;;;5071191;28;19946;-69
2022/03/31 04:35:16;;;;;;;;;;;6.60;99.90;;;;;;5083036;28;19939;-69
2022/03/31 04:37:42;;;;;;;;;;;6.60;99.90;;;;;;5073493;28;19940;-69
2022/03/31 04:40:10;;;;;;;;;;;6.60;99.90;;;;;;5073093;28;19968;-70
2022/03/31 04:42:36;;;;;;;;;;;6.60;99.90;;;;;;5076038;28;19951;-69
2022/03/31 04:45:03;;;;;;;;;;;6.60;99.90;;;;;;5076067;28;19980;-68
2022/03/31 04:47:30;;;;;;;;;;;6.60;99.90;;;;;;5071604;28;20475;-70
2022/03/31 04:49:58;;;;;;;;;;;6.60;99.90;;;;;;5067735;28;19977;-70
2022/03/31 04:52:25;;;;;;;;;;;6.50;99.90;;;;;;5070384;28;19948;-68
2022/03/31 04:54:51;;;;;;;;;;;6.50;99.90;;;;;;5070786;28;19952;-70
2022/03/31 04:57:20;;;;;;;;;;;6.40;99.90;;;;;;5069505;28;20499;-69
2022/03/31 04:59:47;;;;;;;;;;;6.40;99.90;;;;;;5071743;28;20019;-71
2022/03/31 05:02:14;;;;;;;;;;;6.50;99.90;;;;;;5072301;28;19950;-68
2022/03/31 05:04:41;;;;;;;;;;;6.50;99.90;;;;;;5080048;28;19983;-69
2022/03/31 05:07:11;;;;;;;;;;;6.50;99.90;;;;;;5074531;28;19941;-69
2022/03/31 05:09:38;;;;;;;;;;;6.60;99.90;;;;;;5082502;28;19975;-72
2022/03/31 05:12:05;;;;;;;;;;;6.60;99.90;;;;;;5079005;28;20402;-70
2022/03/31 05:14:31;;;;;;;;;;;6.60;99.90;;;;;;5078802;28;19946;-69
2022/03/31 05:16:58;;;;;;;;;;;6.50;99.90;;;;;;5075003;28;20004;-69
2022/03/31 05:19:25;;;;;;;;;;;6.50;99.90;;;;;;5077813;28;19941;-70
2022/03/31 05:21:52;;;;;;;;;;;6.50;99.90;;;;;;5079334;28;19963;-70
2022/03/31 05:24:19;;;;;;;;;;;6.50;99.90;;;;;;5070599;28;20000;-70
2022/03/31 05:26:46;;;;;;;;;;;6.50;99.90;;;;;;5067339;28;20012;-69
2022/03/31 05:29:13;;;;;;;;;;;6.50;99.90;;;;;;5088407;28;20359;-70
2022/03/31 05:31:40;;;;;;;;;;;6.50;99.90;;;;;;5083631;28;19964;-68
2022/03/31 05:34:06;;;;;;;;;;;6.40;99.90;;;;;;5081567;28;19975;-68
2022/03/31 05:36:33;;;;;;;;;;;6.40;99.90;;;;;;5074168;28;19949;-69
2022/03/31 05:39:00;;;;;;;;;;;6.40;99.90;;;;;;5071928;28;19953;-68
2022/03/31 05:41:28;;;;;;;;;;;6.40;99.90;;;;;;5074731;28;20725;-69
2022/03/31 05:43:54;;;;;;;;;;;6.40;99.90;;;;;;5073323;28;19950;-69
2022/03/31 05:46:21;;;;;;;;;;;6.40;99.90;;;;;;5070323;28;19960;-69
2022/03/31 05:48:48;;;;;;;;;;;6.40;99.90;;;;;;5071155;28;20402;-69
2022/03/31 05:51:14;;;;;;;;;;;6.40;99.90;;;;;;5070812;28;19968;-72
2022/03/31 05:53:41;;;;;;;;;;;6.40;99.90;;;;;;5071406;28;19950;-69
2022/03/31 05:56:08;;;;;;;;;;;6.40;99.90;;;;;;5071491;28;19974;-70
2022/03/31 05:58:36;;;;;;;;;;;6.40;99.90;;;;;;5070670;28;19947;-68
2022/03/31 06:01:04;;;;;;;;;;;6.40;99.90;;;;;;5071991;28;19966;-68
2022/03/31 06:03:31;;;;;;;;;;;6.40;99.90;;;;;;5074824;28;19975;-67
2022/03/31 06:05:57;;;;;;;;;;;6.40;99.90;;;;;;5071381;28;19958;-69
2022/03/31 06:08:25;;;;;;;;;;;6.40;99.90;;;;;;5072019;28;19948;-69
2022/03/31 06:10:51;;;;;;;;;;;6.40;99.90;;;;;;5075360;28;19974;-68
2022/03/31 06:13:18;;;;;;;;;;;6.30;99.90;;;;;;5070984;28;19947;-69
2022/03/31 06:15:46;;;;;;;;;;;6.30;99.90;;;;;;5069357;28;20007;-68
2022/03/31 06:18:12;;;;;;;;;;;6.30;99.90;;;;;;5068581;28;20408;-67
2022/03/31 06:20:39;;;;;;;;;;;6.30;99.90;;;;;;5077597;28;19961;-68
2022/03/31 06:23:06;;;;;;;;;;;6.40;99.90;;;;;;5075912;28;19947;-71
2022/03/31 06:25:32;;;;;;;;;;;6.40;99.90;;;;;;5071282;28;20446;-69
2022/03/31 06:27:59;;;;;;;;;;;6.40;99.90;;;;;;5072194;28;20001;-70
2022/03/31 06:30:25;;;;;;;;;;;6.40;99.90;;;;;;5090544;22;19987;-66
2022/03/31 06:32:53;;;;;;;;;;;6.40;99.90;;;;;;5047940;28;19996;-67
2022/03/31 06:35:20;;;;;;;;;;;6.40;99.90;;;;;;5046231;28;19944;-66
2022/03/31 06:37:47;;;;;;;;;;;6.40;99.90;;;;;;5043457;28;20000;-66
2022/03/31 06:40:14;;;;;;;;;;;6.40;99.90;;;;;;5042812;28;20483;-66
2022/03/31 06:42:41;;;;;;;;;;;6.40;99.90;;;;;;5037737;28;19996;-68
2022/03/31 06:45:12;;;;;;;;;;;6.40;99.90;;;;;;5045064;28;19963;-67
2022/03/31 06:47:39;;;;;;;;;;;6.40;99.90;;;;;;5037313;28;19973;-67
2022/03/31 06:50:08;;;;;;;;;;;6.40;99.90;;;;;;5042702;28;19947;-66
2022/03/31 06:52:34;;;;;;;;;;;6.40;99.90;;;;;;5040423;28;19996;-68
2022/03/31 06:55:01;;;;;;;;;;;6.40;99.90;;;;;;5036335;28;19948;-66
2022/03/31 06:57:27;;;;;;;;;;;6.40;99.90;;;;;;5043345;28;19950;-67
2022/03/31 06:59:54;;;;;;;;;;;6.40;99.90;;;;;;5041349;28;19948;-67
2022/03/31 07:02:20;;;;;;;;;;;6.50;99.90;;;;;;5041678;28;19959;-68
2022/03/31 07:04:47;;;;;;;;;;;6.50;99.90;;;;;;5040521;28;19951;-68
2022/03/31 07:07:15;;;;;;;;;;;6.40;99.90;;;;;;5045606;28;20075;-69
2022/03/31 07:09:41;;;;;;;;;;;6.40;99.90;;;;;;5044543;28;20331;-69
2022/03/31 07:12:08;;;;;;;;;;;6.40;99.90;;;;;;5037069;28;20015;-67
2022/03/31 07:14:37;;;;;;;;;;;6.40;99.90;;;;;;5038426;28;20487;-67
2022/03/31 07:17:04;;;;;;;;;;;6.40;99.90;;;;;;5032874;28;20478;-67
2022/03/31 07:19:31;;;;;;;;;;;6.30;99.90;;;;;;5041261;28;19943;-67
2022/03/31 07:21:57;;;;;;;;;;;6.30;99.90;;;;;;5043702;28;19989;-67
2022/03/31 07:24:25;;;;;;;;;;;6.40;99.90;;;;;;5043116;28;19942;-69
2022/03/31 07:26:52;;;;;;;;;;;6.40;99.90;;;;;;5035420;28;19967;-74
2022/03/31 07:29:18;;;;;;;;;;;6.40;99.90;;;;;;5035783;28;19945;-69
2022/03/31 07:31:45;;;;;;;;;;;6.50;99.90;;;;;;5039717;28;20626;-69
2022/03/31 07:34:12;;;;;;;;;;;6.60;99.90;;;;;;5041107;28;20515;-68
2022/03/31 07:36:38;;;;;;;;;;;6.60;99.90;;;;;;5037170;28;20005;-67
2022/03/31 07:39:05;;;;;;;;;;;6.60;99.90;;;;;;5042837;28;19945;-68
2022/03/31 07:41:33;;;;;;;;;;;6.60;99.90;;;;;;5037384;28;19954;-68
2022/03/31 07:43:59;;;;;;;;;;;6.60;99.90;;;;;;5044688;28;19942;-66
2022/03/31 07:46:29;;;;;;;;;;;6.60;99.90;;;;;;5042966;28;20431;-68
2022/03/31 07:48:56;;;;;;;;;;;6.60;99.90;;;;;;5038696;28;20320;-66
2022/03/31 07:51:22;;;;;;;;;;;6.60;99.90;;;;;;5034900;28;19969;-67
2022/03/31 07:53:49;;;;;;;;;;;6.60;99.90;;;;;;5034333;28;20325;-66
2022/03/31 07:56:16;;;;;;;;;;;6.60;99.90;;;;;;5033431;28;19949;-67
2022/03/31 07:58:44;;;;;;;;;;;6.60;99.90;;;;;;5037396;28;20023;-67
2022/03/31 08:01:11;;;;;;;;;;;6.60;99.90;;;;;;5030060;28;19958;-67
2022/03/31 08:03:38;;;;;;;;;;;6.60;99.90;;;;;;5035184;28;19944;-73
2022/03/31 08:06:04;;;;;;;;;;;6.60;99.90;;;;;;5033405;28;20007;-69
2022/03/31 08:08:31;;;;;;;;;;;6.60;99.90;;;;;;5031027;28;20391;-70
2022/03/31 08:10:58;;;;;;;;;;;6.70;99.90;;;;;;5044678;28;19966;-70
2022/03/31 08:13:25;;;;;;;;;;;6.70;99.90;;;;;;5035319;28;20458;-69
2022/03/31 08:15:54;;;;;;;;;;;6.70;99.90;;;;;;5031715;28;20003;-68
2022/03/31 08:18:28;;;;;;;;;;;6.70;99.90;;;;;;5039358;28;20025;-70
2022/03/31 08:20:56;;;;;;;;;;;6.70;99.90;;;;;;5035708;28;20054;-68
2022/03/31 08:23:22;;;;;;;;;;;6.60;99.90;;;;;;5038179;28;19951;-69
2022/03/31 08:25:49;;;;;;;;;;;6.50;99.90;;;;;;5037517;28;20010;-70
2022/03/31 08:28:15;;;;;;;;;;;6.50;99.90;;;;;;5039568;28;20503;-70
2022/03/31 08:30:43;;;;;;;;;;;6.40;99.90;;;;;;5037451;28;19970;-70
2022/03/31 08:33:11;;;;;;;;;;;6.40;99.90;;;;;;5041397;28;19952;-70
2022/03/31 08:35:37;;;;;;;;;;;6.40;99.90;;;;;;5036687;28;19950;-70
2022/03/31 08:38:04;;;;;;;;;;;6.50;99.90;;;;;;5042583;28;20004;-70
2022/03/31 08:40:31;;;;;;;;;;;6.50;99.90;;;;;;5039388;28;19964;-69
2022/03/31 08:42:57;;;;;;;;;;;6.50;99.90;;;;;;5040024;28;19970;-70
2022/03/31 08:45:24;;;;;;;;;;;6.50;99.90;;;;;;5040617;28;19987;-70
2022/03/31 08:47:53;;;;;;;;;;;6.50;99.90;;;;;;5034884;28;19972;-71
2022/03/31 08:50:22;;;;;;;;;;;6.50;99.90;;;;;;5042740;28;20052;-72
2022/03/31 08:52:48;;;;;;;;;;;6.60;99.90;;;;;;5040835;28;19952;-69
2022/03/31 08:55:15;;;;;;;;;;;6.70;99.90;;;;;;5040185;28;19994;-70
2022/03/31 08:57:43;;;;;;;;;;;6.70;99.90;;;;;;5040022;28;19954;-72
2022/03/31 09:00:10;;;;;;;;;;;6.70;99.90;;;;;;5036087;28;20025;-71
2022/03/31 09:02:37;;;;;;;;;;;6.80;99.90;;;;;;5041401;28;20033;-69
2022/03/31 09:05:05;;;;;;;;;;;6.90;99.90;;;;;;5036110;28;20406;-70
2022/03/31 09:07:33;;;;;;;;;;;6.90;99.90;;;;;;5039937;28;20439;-70
2022/03/31 09:10:00;;;;;;;;;;;6.90;99.90;;;;;;5042291;28;19947;-70
2022/03/31 09:12:36;;;;;;;;;;;6.90;99.90;;;;;;5035010;28;19967;-70
2022/03/31 09:15:08;;;;;;;;;;;6.90;99.90;;;;;;5036777;28;19994;-70
2022/03/31 09:17:35;;;;;;;;;;;7.10;99.90;;;;;;5030239;28;19942;-70
2022/03/31 09:20:02;;;;;;;;;;;7.10;99.90;;;;;;5037068;28;20016;-70
2022/03/31 09:22:28;;;;;;;;;;;7.10;99.90;;;;;;5042636;28;19970;-70
2022/03/31 09:25:02;;;;;;;;;;;7.20;99.90;;;;;;5039749;28;19947;-70
2022/03/31 09:27:28;;;;;;;;;;;7.20;99.90;;;;;;5034523;28;20502;-70
2022/03/31 09:30:04;;;;;;;;;;;7.30;99.90;;;;;;5037935;28;20008;-70
2022/03/31 09:32:30;;;;;;;;;;;7.30;99.90;;;;;;5047666;28;19987;-70
2022/03/31 09:35:04;;;;;;;;;;;7.40;99.90;;;;;;5041678;28;19947;-69
2022/03/31 09:37:31;;;;;;;;;;;7.40;99.90;;;;;;5039474;28;20468;-70
2022/03/31 09:39:58;;;;;;;;;;;7.50;99.90;;;;;;5037843;28;20351;-70
2022/03/31 09:42:26;;;;;;;;;;;7.50;99.90;;;;;;5040435;28;19994;-70
2022/03/31 09:44:56;;;;;;;;;;;7.60;99.90;;;;;;5038610;28;19956;-70
2022/03/31 09:47:22;;;;;;;;;;;7.60;99.90;;;;;;5043000;28;19964;-70
2022/03/31 09:49:52;;;;;;;;;;;7.60;99.90;;;;;;5044441;28;19967;-70
2022/03/31 09:52:20;;;;;;;;;;;7.70;99.90;;;;;;5039785;28;19964;-70
2022/03/31 09:54:48;;;;;;;;;;;7.70;99.90;;;;;;5043254;28;19952;-71
2022/03/31 09:57:15;;;;;;;;;;;7.60;99.90;;;;;;5045276;28;19982;-70
2022/03/31 09:59:44;;;;;;;;;;;7.60;99.90;;;;;;5042826;28;20462;-70
2022/03/31 10:02:11;;;;;;;;;;;7.50;99.90;;;;;;5041414;28;20609;-70
2022/03/31 10:04:37;;;;;;;;;;;7.40;99.90;;;;;;5044222;28;19940;-71
2022/03/31 10:07:04;;;;;;;;;;;7.50;99.90;;;;;;5046238;28;19957;-70
2022/03/31 10:09:32;;;;;;;;;;;7.60;99.90;;;;;;5039712;28;19948;-70
2022/03/31 10:12:01;;;;;;;;;;;7.70;99.90;;;;;;5041225;28;19966;-70
2022/03/31 10:14:31;;;;;;;;;;;7.90;99.90;;;;;;5041601;28;19949;-70
2022/03/31 10:16:59;;;;;;;;;;;7.90;99.90;;;;;;5034824;28;21589;-70
2022/03/31 10:19:27;;;;;;;;;;;7.90;99.90;;;;;;5041745;28;20671;-71
2022/03/31 10:21:58;;;;;;;;;;;7.90;99.90;;;;;;5038977;28;19966;-70
2022/03/31 10:24:44;;;;;;;;;;;8.00;99.90;;;;;;5043347;28;20448;-70
2022/03/31 10:27:14;;;;;;;;;;;8.00;99.90;;;;;;5039738;28;19962;-71
2022/03/31 10:29:42;;;;;;;;;;;8.00;99.90;;;;;;5041944;28;19950;-70
2022/03/31 10:32:16;;;;;;;;;;;8.00;99.90;;;;;;5041073;28;19967;-70
2022/03/31 10:34:45;;;;;;;;;;;7.90;99.90;;;;;;5044165;28;19943;-70
2022/03/31 10:37:12;;;;;;;;;;;7.70;99.90;;;;;;5040967;28;19944;-70
2022/03/31 10:39:39;;;;;;;;;;;7.70;99.90;;;;;;5041470;28;20025;-70
2022/03/31 10:42:07;;;;;;;;;;;7.70;99.90;;;;;;5042665;28;19970;-70
2022/03/31 10:44:33;;;;;;;;;;;7.70;99.90;;;;;;5044676;28;19957;-70
2022/03/31 10:47:01;;;;;;;;;;;7.60;99.90;;;;;;5039057;28;19959;-70
2022/03/31 10:49:29;;;;;;;;;;;7.50;99.90;;;;;;5039078;28;20067;-70
2022/03/31 10:51:56;;;;;;;;;;;7.50;99.90;;;;;;5039144;28;20022;-71
2022/03/31 10:54:27;;;;;;;;;;;7.40;99.90;;;;;;5040047;28;19947;-71
2022/03/31 10:57:06;;;;;;;;;;;7.40;99.90;;;;;;5040162;28;19938;-69
2022/03/31 10:59:34;;;;;;;;;;;7.40;99.90;;;;;;5037959;28;20407;-69
2022/03/31 11:02:11;;;;;;;;;;;7.30;99.90;;;;;;5048148;28;19999;-71
2022/03/31 11:04:49;;;;;;;;;;;7.10;99.90;;;;;;5038699;28;19957;-72
2022/03/31 11:07:17;;;;;;;;;;;7.10;99.90;;;;;;5038817;28;19970;-72
2022/03/31 11:09:45;;;;;;;;;;;7.10;99.90;;;;;;5047023;28;20498;-72
2022/03/31 11:12:21;;;;;;;;;;;7.10;99.90;;;;;;5042071;28;19984;-71
2022/03/31 11:14:55;;;;;;;;;;;7.10;99.90;;;;;;5035615;28;20324;-72
2022/03/31 11:17:23;;;;;;;;;;;7.30;99.90;;;;;;5042047;28;20037;-70
2022/03/31 11:19:53;;;;;;;;;;;7.30;99.90;;;;;;5044877;28;20036;-70
2022/03/31 11:22:20;;;;;;;;;;;7.30;99.90;;;;;;5039245;28;20016;-68
2022/03/31 11:24:47;;;;;;;;;;;7.40;99.90;;;;;;5047999;28;19949;-72
2022/03/31 11:27:13;;;;;;;;;;;7.30;99.90;;;;;;5044203;28;20385;-70
2022/03/31 11:29:40;;;;;;;;;;;7.30;99.90;;;;;;5041978;28;19945;-80
2022/03/31 11:32:07;;;;;;;;;;;7.20;99.90;;;;;;5043852;28;19963;-71
2022/03/31 11:34:34;;;;;;;;;;;7.20;99.90;;;;;;5035901;28;19939;-72
2022/03/31 11:37:02;;;;;;;;;;;7.20;99.90;;;;;;5042343;28;19960;-72
2022/03/31 11:39:30;;;;;;;;;;;7.30;99.90;;;;;;5040791;28;19942;-72
2022/03/31 11:41:57;;;;;;;;;;;7.30;99.90;;;;;;5038559;28;20041;-72
2022/03/31 11:44:24;;;;;;;;;;;7.20;99.90;;;;;;5042224;28;19943;-72
2022/03/31 11:46:51;;;;;;;;;;;7.20;99.90;;;;;;5043267;28;20009;-72
2022/03/31 11:49:18;;;;;;;;;;;7.10;99.90;;;;;;5037108;28;19939;-71
2022/03/31 11:51:48;;;;;;;;;;;7.20;99.90;;;;;;5043845;28;19974;-72
2022/03/31 11:54:16;;;;;;;;;;;7.20;99.90;;;;;;5043104;28;19949;-72
2022/03/31 11:56:42;;;;;;;;;;;7.20;99.90;;;;;;5041387;28;20294;-73
2022/03/31 11:59:09;;;;;;;;;;;7.30;99.90;;;;;;5045397;28;19945;-71
2022/03/31 12:01:37;;;;;;;;;;;7.30;99.90;;;;;;5038470;28;20576;-70
2022/03/31 12:04:04;;;;;;;;;;;7.30;99.90;;;;;;5042117;28;19992;-71
2022/03/31 12:06:32;;;;;;;;;;;7.40;99.90;;;;;;5037761;28;20028;-72
2022/03/31 12:08:58;;;;;;;;;;;7.40;99.90;;;;;;5043173;28;19939;-71
2022/03/31 12:11:29;;;;;;;;;;;7.40;99.90;;;;;;5048271;28;19966;-71
2022/03/31 12:13:58;;;;;;;;;;;7.30;99.90;;;;;;5044345;28;19946;-72
2022/03/31 12:16:25;;;;;;;;;;;7.20;99.90;;;;;;5043549;28;19948;-70
2022/03/31 12:18:55;;;;;;;;;;;7.20;99.90;;;;;;5036879;28;20001;-72
2022/03/31 12:21:22;;;;;;;;;;;7.10;99.90;;;;;;5046781;28;19970;-72
2022/03/31 12:23:48;;;;;;;;;;;7.00;99.90;;;;;;5034458;28;19991;-71
2022/03/31 12:26:16;;;;;;;;;;;7.10;99.90;;;;;;5038231;28;20013;-71
2022/03/31 12:28:45;;;;;;;;;;;7.00;99.90;;;;;;5040878;28;20432;-71
2022/03/31 12:31:22;;;;;;;;;;;7.00;99.90;;;;;;5045694;28;19974;-74
2022/03/31 12:33:49;;;;;;;;;;;7.00;99.90;;;;;;5048538;28;19955;-74
2022/03/31 12:36:15;;;;;;;;;;;7.10;99.90;;;;;;5054237;28;19943;-75
2022/03/31 12:38:44;;;;;;;;;;;7.10;99.90;;;;;;5044186;28;19959;-71
2022/03/31 12:41:17;;;;;;;;;;;6.90;99.90;;;;;;5053121;28;19971;-74
2022/03/31 12:43:56;;;;;;;;;;;6.90;99.90;;;;;;5043895;28;19954;-74
2022/03/31 12:46:23;;;;;;;;;;;6.80;99.90;;;;;;5040407;28;19949;-74
2022/03/31 12:48:53;;;;;;;;;;;6.70;99.90;;;;;;5052799;28;19962;-73
2022/03/31 12:51:20;;;;;;;;;;;6.80;99.90;;;;;;5039062;28;19991;-73
2022/03/31 12:53:46;;;;;;;;;;;6.80;99.90;;;;;;5051765;28;20001;-74
2022/03/31 12:56:21;;;;;;;;;;;6.70;99.90;;;;;;5052084;28;19956;-73
2022/03/31 12:58:47;;;;;;;;;;;6.70;99.90;;;;;;5060558;28;19947;-74
2022/03/31 13:01:17;;;;;;;;;;;6.70;99.90;;;;;;5059971;28;19969;-72
2022/03/31 13:03:46;;;;;;;;;;;6.70;99.90;;;;;;5052481;28;20026;-73
2022/03/31 13:06:14;;;;;;;;;;;6.70;99.90;;;;;;5050565;28;19947;-74
2022/03/31 13:08:41;;;;;;;;;;;6.80;99.90;;;;;;5047296;28;19964;-74
2022/03/31 13:11:08;;;;;;;;;;;6.80;99.90;;;;;;5056961;28;19962;-74
2022/03/31 13:13:34;;;;;;;;;;;6.80;99.90;;;;;;5052642;28;19986;-73
2022/03/31 13:16:01;;;;;;;;;;;6.80;99.90;;;;;;5046637;28;19956;-75
2022/03/31 13:18:29;;;;;;;;;;;6.90;99.90;;;;;;5045956;28;19945;-75
2022/03/31 13:20:56;;;;;;;;;;;6.90;99.90;;;;;;5042051;28;19982;-75
2022/03/31 13:23:22;;;;;;;;;;;7.00;99.90;;;;;;5052067;28;19946;-74
2022/03/31 13:25:49;;;;;;;;;;;7.00;99.90;;;;;;5053597;28;19943;-73
2022/03/31 13:28:15;;;;;;;;;;;7.00;99.90;;;;;;5053930;28;19969;-74
2022/03/31 13:30:42;;;;;;;;;;;7.00;99.90;;;;;;5053114;28;20191;-73
2022/03/31 13:33:08;;;;;;;;;;;7.10;99.90;;;;;;5056228;28;19957;-74
2022/03/31 13:35:36;;;;;;;;;;;7.10;99.90;;;;;;5049981;28;20014;-73
2022/03/31 13:38:03;;;;;;;;;;;7.10;99.90;;;;;;5053721;28;19995;-73
2022/03/31 13:40:31;;;;;;;;;;;7.10;99.90;;;;;;5053164;28;20391;-73
2022/03/31 13:42:58;;;;;;;;;;;7.10;99.90;;;;;;5055806;28;19950;-72
2022/03/31 13:45:25;;;;;;;;;;;7.20;99.90;;;;;;5045639;28;20070;-73
2022/03/31 13:47:51;;;;;;;;;;;7.20;99.90;;;;;;5041283;28;20033;-73
2022/03/31 13:50:20;;;;;;;;;;;7.20;99.90;;;;;;5054469;28;20012;-72
2022/03/31 13:53:43;;;;;;;;;;;7.20;99.90;;;;;;5051562;28;20031;-72
2022/03/31 13:55:35;;;;;;;;;;;7.10;99.90;;;;;;5043987;28;20047;-72
2022/03/31 14:03:30;;;;;;;;;;;7.10;99.90;;;;;;5043509;28;19951;-72
2022/03/31 14:05:56;;;;;;;;;;;7.10;99.90;;;;;;5049045;28;19949;-74
2022/03/31 14:08:24;;;;;;;;;;;7.20;99.90;;;;;;5055077;28;19978;-72
2022/03/31 14:10:50;;;;;;;;;;;7.20;99.90;;;;;;5055999;28;20055;-73
2022/03/31 14:13:17;;;;;;;;;;;7.20;99.90;;;;;;5044682;28;20397;-72
2022/03/31 14:15:44;;;;;;;;;;;7.20;99.90;;;;;;5055593;28;19950;-72
2022/03/31 14:18:10;;;;;;;;;;;7.10;99.90;;;;;;5043361;28;19940;-74
2022/03/31 14:20:37;;;;;;;;;;;6.90;99.90;;;;;;5065010;28;20030;-72
2022/03/31 14:23:04;;;;;;;;;;;6.80;99.90;;;;;;5050266;28;19944;-73
2022/03/31 14:25:31;;;;;;;;;;;6.90;99.90;;;;;;5050354;28;19938;-72
2022/03/31 14:27:58;;;;;;;;;;;6.80;99.90;;;;;;5052525;28;19967;-73
2022/03/31 14:30:25;;;;;;;;;;;6.70;99.90;;;;;;5058107;28;19946;-72
2022/03/31 14:32:52;;;;;;;;;;;6.60;99.90;;;;;;5053626;28;19971;-72
2022/03/31 14:35:18;;;;;;;;;;;6.60;99.90;;;;;;5052664;28;19966;-73
2022/03/31 14:37:45;;;;;;;;;;;6.50;99.90;;;;;;5049574;28;19985;-73
2022/03/31 14:40:14;;;;;;;;;;;6.40;99.90;;;;;;5043860;28;20039;-73
2022/03/31 14:42:42;;;;;;;;;;;6.40;99.90;;;;;;5051999;28;20000;-72